createdAt,value
2022-12-11T00:05:46.591Z,79.64
2022-12-11T00:27:32.627Z,79.89
2022-12-11T00:49:19.559Z,80.60
2022-12-11T01:11:08.820Z,80.82
2022-12-11T01:32:54.840Z,80.42
2022-12-11T01:54:41.087Z,80.45
2022-12-11T02:16:32.519Z,80.74
2022-12-11T02:38:25.592Z,81.86
2022-12-11T03:00:13.545Z,81.40
2022-12-11T03:22:09.635Z,81.77
2022-12-11T03:43:58.477Z,81.67
2022-12-11T04:05:45.916Z,82.59
2022-12-11T04:27:50.588Z,84.00
2022-12-11T04:49:36.324Z,84.23
2022-12-11T05:11:22.292Z,82.99
2022-12-11T05:33:06.892Z,82.01
2022-12-11T05:54:53.035Z,81.23
2022-12-11T06:16:38.885Z,80.27
2022-12-11T06:38:23.080Z,80.01
2022-12-11T07:00:11.115Z,79.65
2022-12-11T07:21:56.817Z,79.85
2022-12-11T07:43:43.094Z,79.15
2022-12-11T08:05:29.075Z,78.00
2022-12-11T08:27:14.886Z,76.86
2022-12-11T08:48:59.599Z,75.97
2022-12-11T09:10:45.380Z,74.76
2022-12-11T09:32:32.468Z,73.64
2022-12-11T09:54:19.261Z,74.50
2022-12-11T10:16:20.976Z,73.48
2022-12-11T10:38:16.916Z,73.14
2022-12-11T11:00:05.195Z,71.75
2022-12-11T11:21:55.313Z,71.15
2022-12-11T11:43:47.644Z,70.96
2022-12-11T12:05:41.915Z,70.89
2022-12-11T12:27:52.129Z,70.66
2022-12-11T12:49:42.306Z,71.64
2022-12-11T13:11:36.497Z,71.89
2022-12-11T13:33:24.755Z,71.68
2022-12-11T13:55:24.345Z,71.03
2022-12-11T14:17:17.583Z,72.50
2022-12-11T14:39:12.102Z,73.17
2022-12-11T15:01:03.758Z,71.06
2022-12-11T15:22:50.027Z,70.98
2022-12-11T15:44:36.620Z,71.77
2022-12-11T16:06:22.749Z,71.34
2022-12-11T16:28:09.682Z,70.65
2022-12-11T16:49:56.545Z,71.10
2022-12-11T17:11:43.696Z,70.93
2022-12-11T17:33:29.529Z,71.38
2022-12-11T17:55:17.519Z,72.59
2022-12-11T18:17:03.635Z,73.97
2022-12-11T18:38:53.331Z,76.28
2022-12-11T19:00:40.576Z,78.28
2022-12-11T19:22:26.455Z,79.21
2022-12-11T19:44:13.281Z,80.33
2022-12-11T20:06:09.502Z,81.66
2022-12-11T20:27:56.614Z,82.16
2022-12-11T20:49:42.736Z,82.05
2022-12-11T21:11:36.576Z,82.13
2022-12-11T21:33:22.664Z,82.39
2022-12-11T21:55:09.588Z,83.10
2022-12-11T22:16:56.318Z,84.32
2022-12-11T22:38:42.156Z,86.65
2022-12-11T23:00:29.680Z,89.10
2022-12-11T23:22:17.149Z,90.11
2022-12-11T23:44:03.380Z,90.08
